createdAt,value
2023-01-18T00:05:05.281Z,-0.4
2023-01-18T00:10:57.328Z,-0.4
2023-01-18T00:16:55.533Z,-0.5
2023-01-18T00:22:55.200Z,-0.6
2023-01-18T00:28:45.065Z,-0.4
2023-01-18T00:34:36.979Z,-0.5
2023-01-18T00:40:51.810Z,-0.5
2023-01-18T00:46:47.840Z,-0.7
2023-01-18T00:52:41.680Z,-0.6
2023-01-18T00:58:35.245Z,-0.8
2023-01-18T01:04:27.711Z,-0.5
2023-01-18T01:10:19.976Z,-0.7
2023-01-18T01:16:25.452Z,-0.6
2023-01-18T01:22:19.149Z,-0.6
2023-01-18T01:28:11.164Z,-0.8
2023-01-18T01:34:02.798Z,-0.7
2023-01-18T01:39:51.992Z,-0.8
2023-01-18T01:45:55.093Z,-0.8
2023-01-18T01:51:52.330Z,-0.6
2023-01-18T01:57:44.805Z,-0.8
2023-01-18T02:03:38.342Z,-1.4
2023-01-18T02:09:30.870Z,-0.8
2023-01-18T02:15:29.494Z,-0.9
2023-01-18T02:21:27.967Z,-0.9
2023-01-18T02:27:21.699Z,-0.8
2023-01-18T02:33:14.886Z,-1.4
2023-01-18T02:39:19.304Z,-0.9
2023-01-18T02:45:18.558Z,-0.8
2023-01-18T02:51:11.266Z,-0.9
2023-01-18T02:57:02.466Z,-1
2023-01-18T03:02:55.575Z,-0.9
2023-01-18T03:08:49.836Z,-1
2023-01-18T03:14:43.569Z,-0.9
2023-01-18T03:20:34.759Z,-0.8
2023-01-18T03:26:25.959Z,-1
2023-01-18T03:32:21.813Z,-1.2
2023-01-18T03:38:13.927Z,-1.3
2023-01-18T03:44:10.190Z,-1.1
2023-01-18T03:50:01.037Z,-1.1
2023-01-18T03:55:58.063Z,-1.1
2023-01-18T04:01:49.188Z,-1.1
2023-01-18T04:07:46.229Z,-1.3
2023-01-18T04:13:54.621Z,-1.2
2023-01-18T04:19:54.973Z,-1.1
2023-01-18T04:25:49.096Z,-1.2
2023-01-18T04:31:45.087Z,-1.4
2023-01-18T04:37:38.729Z,-1.2
2023-01-18T04:43:32.861Z,-1.3
2023-01-18T04:49:25.292Z,-1.6
2023-01-18T04:55:15.216Z,-1.9
2023-01-18T05:01:03.651Z,-1.5
2023-01-18T05:06:55.178Z,-1.5
2023-01-18T05:12:45.468Z,-1.3
2023-01-18T05:18:35.683Z,-1.5
2023-01-18T05:24:28.265Z,-1.3
2023-01-18T05:30:20.366Z,-1.4
2023-01-18T05:36:11.050Z,-1.3
2023-01-18T05:42:01.622Z,-1.1
2023-01-18T05:47:51.877Z,-1.2
2023-01-18T05:53:42.615Z,-1.4
2023-01-18T05:59:32.858Z,-1.7
2023-01-18T06:05:23.662Z,-1.5
2023-01-18T06:11:14.242Z,-1.1
2023-01-18T06:17:04.850Z,-1
2023-01-18T06:22:55.072Z,-1.2
2023-01-18T06:28:49.333Z,-1.1
2023-01-18T06:34:39.618Z,-1.4
2023-01-18T06:40:30.383Z,-1.5
2023-01-18T06:46:22.440Z,-1.1
2023-01-18T06:52:12.698Z,-1.4
2023-01-18T06:58:03.815Z,-1.4
2023-01-18T07:03:54.920Z,-1.2
2023-01-18T07:09:46.419Z,-1.3
2023-01-18T07:15:36.709Z,-1.3
2023-01-18T07:21:27.803Z,-1.1
2023-01-18T07:27:18.767Z,-1.5
2023-01-18T07:33:10.154Z,-1.3
2023-01-18T07:39:00.524Z,-1.4
2023-01-18T07:44:51.695Z,-1.5
2023-01-18T07:50:42.737Z,-1.6
2023-01-18T07:56:33.621Z,-1.5
2023-01-18T08:02:24.405Z,-1.5
2023-01-18T08:08:15.490Z,-1.7
2023-01-18T08:14:05.751Z,-1.6
2023-01-18T08:19:56.546Z,-1.4
2023-01-18T08:25:48.443Z,-1.3
2023-01-18T08:31:40.078Z,-1.2
2023-01-18T08:37:30.181Z,-1.3
2023-01-18T08:43:21.604Z,-1.5
2023-01-18T08:49:12.420Z,-1.5
2023-01-18T08:55:03.568Z,-1.5
2023-01-18T09:00:54.522Z,-1.2
2023-01-18T09:06:44.751Z,-1.3
2023-01-18T09:12:37.563Z,-1.2
2023-01-18T09:18:28.642Z,-1.1
2023-01-18T09:24:26.939Z,-1.1
2023-01-18T09:30:16.723Z,-0.8
2023-01-18T09:36:10.800Z,-0.8
2023-01-18T09:42:02.701Z,-0.7
2023-01-18T09:47:53.521Z,-0.6
2023-01-18T09:53:44.460Z,-0.6
2023-01-18T09:59:36.094Z,-0.3
2023-01-18T10:05:26.449Z,-0.2
2023-01-18T10:11:17.412Z,-0.1
2023-01-18T10:17:10.378Z,0.1
2023-01-18T10:23:01.150Z,0.3
2023-01-18T10:28:56.109Z,0.5
2023-01-18T10:34:46.296Z,0.6
2023-01-18T10:40:38.647Z,0.9
2023-01-18T10:46:29.623Z,1.1
2023-01-18T10:52:20.649Z,1.2
2023-01-18T10:58:11.218Z,1.3
2023-01-18T11:04:03.157Z,1.4
2023-01-18T11:09:53.940Z,1.6
2023-01-18T11:15:42.322Z,1.6
2023-01-18T11:21:34.214Z,1.7
2023-01-18T11:27:26.150Z,1.7
2023-01-18T11:33:17.421Z,1.6
2023-01-18T11:39:08.437Z,1.6
2023-01-18T11:44:57.376Z,1.7
2023-01-18T11:50:48.127Z,1.9
2023-01-18T11:56:37.939Z,2
2023-01-18T12:02:27.776Z,2
2023-01-18T12:08:18.499Z,2
2023-01-18T12:14:08.186Z,2.1
2023-01-18T12:19:58.758Z,2.2
2023-01-18T12:25:52.013Z,2.5
2023-01-18T12:32:04.613Z,2.5
2023-01-18T12:37:55.559Z,2.6
2023-01-18T12:43:48.281Z,2.8
2023-01-18T12:49:40.783Z,2.8
2023-01-18T12:55:29.998Z,3
2023-01-18T13:01:20.209Z,3
2023-01-18T13:07:12.448Z,3
2023-01-18T13:13:03.677Z,3.1
2023-01-18T13:18:55.202Z,3.1
2023-01-18T13:24:45.159Z,3
2023-01-18T13:30:35.866Z,3.2
2023-01-18T13:36:26.949Z,3.2
2023-01-18T13:42:20.268Z,3.3
2023-01-18T13:48:13.170Z,3.5
2023-01-18T13:54:07.500Z,3.5
2023-01-18T14:00:00.291Z,3.6
2023-01-18T14:05:50.468Z,3.6
2023-01-18T14:11:42.257Z,3.6
2023-01-18T14:17:32.641Z,3.6
2023-01-18T14:23:43.025Z,3.6
2023-01-18T14:29:32.859Z,3.6
2023-01-18T14:41:35.328Z,3.6
2023-01-18T14:47:36.439Z,3.5
2023-01-18T14:53:41.065Z,3.5
2023-01-18T15:05:44.268Z,3.6
2023-01-18T15:11:35.847Z,3.5
2023-01-18T15:17:27.635Z,3.5
2023-01-18T15:23:21.041Z,3.5
2023-01-18T15:29:14.488Z,3.4
2023-01-18T15:35:05.896Z,3.4
2023-01-18T15:40:57.890Z,3.2
2023-01-18T15:46:47.055Z,3
2023-01-18T15:52:37.830Z,2.9
2023-01-18T15:58:31.290Z,2.8
2023-01-18T16:04:21.832Z,2.6
2023-01-18T16:10:13.088Z,2.5
2023-01-18T16:16:03.122Z,2.4
2023-01-18T16:21:53.079Z,2.3
2023-01-18T16:27:45.549Z,2.2
2023-01-18T16:33:36.653Z,2.1
2023-01-18T16:39:26.097Z,2
2023-01-18T16:45:15.786Z,1.8
2023-01-18T16:51:09.281Z,1.6
2023-01-18T16:56:58.979Z,1.6
2023-01-18T17:02:49.560Z,1.6
2023-01-18T17:08:49.705Z,1.2
2023-01-18T17:14:42.521Z,1.1
2023-01-18T17:20:33.896Z,0.9
2023-01-18T17:26:26.073Z,0.9
2023-01-18T17:32:16.132Z,0.9
2023-01-18T17:38:11.307Z,1
2023-01-18T17:44:17.352Z,0.9
2023-01-18T17:50:22.830Z,0.7
2023-01-18T17:56:14.938Z,0.5
2023-01-18T18:02:06.963Z,0.6
2023-01-18T18:08:00.915Z,0.7
2023-01-18T18:13:57.988Z,0.5
2023-01-18T18:19:55.800Z,0.4
2023-01-18T18:25:46.039Z,0.3
2023-01-18T18:37:41.622Z,0.3
2023-01-18T18:43:33.802Z,0.2
2023-01-18T18:49:23.760Z,0.1
2023-01-18T18:55:21.974Z,0.1
2023-01-18T19:01:14.858Z,-0.1
2023-01-18T19:07:06.067Z,-0.2
2023-01-18T19:12:55.543Z,0
2023-01-18T19:18:47.218Z,0
2023-01-18T19:24:39.823Z,-0.1
2023-01-18T19:30:32.283Z,0
2023-01-18T19:36:24.261Z,-0.2
2023-01-18T19:42:14.610Z,0
2023-01-18T19:48:05.635Z,-0.1
2023-01-18T19:53:57.101Z,-0.2
2023-01-18T19:59:47.010Z,-0.3
2023-01-18T20:05:37.876Z,-0.2
2023-01-18T20:11:27.609Z,-0.3
2023-01-18T20:17:20.292Z,-0.2
2023-01-18T20:23:18.566Z,-0.3
2023-01-18T20:29:12.026Z,-0.1
2023-01-18T20:35:11.971Z,-0.3
2023-01-18T20:41:27.890Z,-0.3
2023-01-18T20:47:22.006Z,-0.2
2023-01-18T20:53:17.243Z,-0.2
2023-01-18T20:59:06.194Z,-0.3
2023-01-18T21:04:56.229Z,-0.4
2023-01-18T21:10:44.845Z,-0.3
2023-01-18T21:16:34.653Z,-0.3
2023-01-18T21:22:26.550Z,-0.4
2023-01-18T21:28:16.985Z,-0.4
2023-01-18T21:34:08.134Z,-0.3
2023-01-18T21:40:00.829Z,-0.3
2023-01-18T21:45:50.680Z,-0.3
2023-01-18T21:51:41.091Z,-0.5
2023-01-18T21:57:29.607Z,-0.5
2023-01-18T22:03:18.104Z,-0.5
2023-01-18T22:09:07.090Z,-0.5
2023-01-18T22:14:58.323Z,-0.4
2023-01-18T22:20:48.265Z,-0.4
2023-01-18T22:26:38.510Z,-0.4
2023-01-18T22:32:26.697Z,-0.4
2023-01-18T22:38:15.719Z,-0.5
2023-01-18T22:44:05.038Z,-0.5
2023-01-18T22:49:53.822Z,-0.5
2023-01-18T22:55:42.277Z,-0.5
2023-01-18T23:01:32.948Z,-0.5
2023-01-18T23:07:22.130Z,-0.4
2023-01-18T23:13:11.004Z,-0.4
2023-01-18T23:19:01.107Z,-0.4
2023-01-18T23:24:49.972Z,-0.4
2023-01-18T23:30:52.506Z,-0.3
2023-01-18T23:36:56.715Z,-0.2
2023-01-18T23:49:05.737Z,-0.2
2023-01-18T23:55:12.233Z,-0.2
